Time;durP1;ratioP1;P1;durP2;ratioP2;P2;SDS_P1;SDS_P2;PMS_P1;PMS_P2;Temp;Humidity;BMP_temperature;BMP_pressure;BME280_temperature;BME280_humidity;BME280_pressure;Samples;Min_cycle;Max_cycle;Signal;HPM_P1;HPM_P2
2023/07/19 00:04:03;;;;;;;;;;;;;;;16.00;83.78;97541.81;6196221;23;19924;-91
2023/07/19 00:09:41;;;;;;;;;;;;;;;16.04;83.48;97542.59;6224931;23;19942;-90
2023/07/19 00:12:16;;;;;;;;;;;;;;;16.01;83.99;97537.84;6173101;23;19919;-93
2023/07/19 00:15:06;;;;;;;;;;;;;;;16.06;84.20;97531.16;6195472;23;19919;-91
2023/07/19 00:20:11;;;;;;;;;;;;;;;16.00;84.58;97528.03;6228095;22;19930;-90
2023/07/19 00:22:38;;;;;;;;;;;;;;;16.02;84.52;97522.09;6257292;22;19919;-92
2023/07/19 00:25:12;;;;;;;;;;;;;;;16.05;84.88;97524.88;6254688;22;19929;-91
2023/07/19 00:28:03;;;;;;;;;;;;;;;16.07;85.25;97511.50;6203974;22;20349;-91
2023/07/19 00:30:58;;;;;;;;;;;;;;;16.14;85.03;97502.44;6203974;22;20341;-90
2023/07/19 00:33:24;;;;;;;;;;;;;;;16.16;84.89;97492.59;6228596;22;19942;-90
2023/07/19 00:35:51;;;;;;;;;;;;;;;16.19;85.48;97497.31;6228673;22;19988;-90
2023/07/19 00:38:35;;;;;;;;;;;;;;;16.19;85.07;97489.06;6229068;22;19939;-92
2023/07/19 00:41:00;;;;;;;;;;;;;;;16.17;85.46;97487.88;6229961;22;19920;-91
2023/07/19 00:43:51;;;;;;;;;;;;;;;16.21;85.72;97488.66;6202412;22;19976;-91
2023/07/19 00:46:55;;;;;;;;;;;;;;;16.20;85.46;97476.06;6201146;22;19981;-92
2023/07/19 00:49:20;;;;;;;;;;;;;;;16.25;85.66;97474.84;6199973;22;19996;-89
2023/07/19 00:58:51;;;;;;;;;;;;;;;16.18;85.21;97473.69;6256250;22;19949;-90
2023/07/19 01:01:17;;;;;;;;;;;;;;;16.12;85.73;97466.97;6281432;22;19919;-91
2023/07/19 01:03:45;;;;;;;;;;;;;;;16.13;85.97;97471.34;6230800;22;19944;-93
2023/07/19 01:06:40;;;;;;;;;;;;;;;16.21;85.64;97466.59;6244883;22;19943;-91
2023/07/19 01:09:05;;;;;;;;;;;;;;;16.23;85.96;97472.50;6253815;22;19923;-91
2023/07/19 01:11:31;;;;;;;;;;;;;;;16.29;85.85;97467.38;6227906;22;20001;-93
2023/07/19 01:14:23;;;;;;;;;;;;;;;16.21;85.49;97461.84;6226253;22;19981;-92
2023/07/19 01:17:40;;;;;;;;;;;;;;;16.22;85.68;97462.66;6238207;22;20011;-92
2023/07/19 01:20:08;;;;;;;;;;;;;;;16.23;85.72;97455.97;6197240;23;19923;-90
2023/07/19 01:23:00;;;;;;;;;;;;;;;16.17;86.34;97461.09;6222756;22;19920;-93
2023/07/19 01:28:41;;;;;;;;;;;;;;;16.09;87.38;97447.69;6251040;22;19919;-94
2023/07/19 01:33:46;;;;;;;;;;;;;;;16.08;88.02;97451.63;6250481;22;19923;-91
2023/07/19 01:36:12;;;;;;;;;;;;;;;16.11;87.46;97442.59;6200807;22;19926;-93
2023/07/19 01:38:41;;;;;;;;;;;;;;;16.11;87.67;97451.63;6200164;22;19923;-93
2023/07/19 01:41:32;;;;;;;;;;;;;;;16.11;87.86;97454.38;6200159;22;19919;-93
2023/07/19 01:44:00;;;;;;;;;;;;;;;16.07;88.19;97461.88;6200954;22;19919;-93
2023/07/19 01:46:28;;;;;;;;;;;;;;;16.04;88.59;97451.66;6200776;22;19946;-93
2023/07/19 01:49:19;;;;;;;;;;;;;;;16.07;88.78;97459.13;6226591;22;19988;-92
2023/07/19 01:51:53;;;;;;;;;;;;;;;16.08;88.53;97455.19;6161367;23;19920;-95
2023/07/19 01:54:31;;;;;;;;;;;;;;;16.08;88.91;97460.69;6187032;23;19923;-95
2023/07/19 01:56:58;;;;;;;;;;;;;;;16.10;89.86;97466.59;6163058;23;20001;-91
2023/07/19 02:02:32;;;;;;;;;;;;;;;16.10;89.68;97476.84;6202799;22;19989;-96
2023/07/19 02:08:45;;;;;;;;;;;;;;;16.17;89.62;97488.66;6270638;22;19919;-93
2023/07/19 02:11:15;;;;;;;;;;;;;;;16.23;89.33;97480.00;6220662;22;19966;-95
2023/07/19 02:13:41;;;;;;;;;;;;;;;16.20;88.71;97487.06;6226869;22;19919;-94
2023/07/19 02:19:50;;;;;;;;;;;;;;;16.17;87.32;97469.34;6255944;22;19923;-95
2023/07/19 02:22:42;;;;;;;;;;;;;;;16.15;86.76;97488.25;6232446;22;20014;-94
2023/07/19 02:32:19;;;;;;;;;;;;;;;16.23;85.03;97477.25;6143233;23;19989;-94
2023/07/19 02:36:04;;;;;;;;;;;;;;;16.23;85.17;97475.25;6222000;22;19923;-95
2023/07/19 02:38:44;;;;;;;;;;;;;;;16.18;84.84;97497.69;6256218;23;20318;-96
2023/07/19 02:44:58;;;;;;;;;;;;;;;16.11;85.37;97492.97;6231748;22;19923;-95
2023/07/19 02:50:42;;;;;;;;;;;;;;;15.95;86.54;97503.59;6312499;22;20265;-92
2023/07/19 02:53:33;;;;;;;;;;;;;;;15.91;87.19;97502.81;6237994;22;19940;-91
2023/07/19 02:56:45;;;;;;;;;;;;;;;;;;;;;
2023/07/19 02:59:49;;;;;;;;;;;;;;;15.83;87.20;97513.06;6107504;23;20964;-95
2023/07/19 03:02:30;;;;;;;;;;;;;;;15.79;87.81;97516.97;6084987;23;19921;-94
2023/07/19 03:04:59;;;;;;;;;;;;;;;15.77;88.78;97511.88;6200791;23;19923;-94
2023/07/19 03:14:43;;;;;;;;;;;;;;;15.56;89.99;97504.28;6310211;22;19923;-95
2023/07/19 03:17:39;;;;;;;;;;;;;;;15.50;90.40;97509.41;6264610;22;19973;-95
2023/07/19 03:35:52;;;;;;;;;;;;;;;15.30;90.97;97556.91;6280825;22;19927;-95
2023/07/19 03:38:44;;;;;;;;;;;;;;;15.34;90.79;97563.25;6281609;22;19978;-95
2023/07/19 03:41:12;;;;;;;;;;;;;;;15.30;90.09;97560.50;6232070;22;19920;-92
2023/07/19 03:43:42;;;;;;;;;;;;;;;15.33;90.57;97567.97;6229861;22;19953;-94
2023/07/19 03:46:32;;;;;;;;;;;;;;;15.34;90.97;97571.50;6234969;22;19939;-94
2023/07/19 03:49:04;;;;;;;;;;;;;;;15.35;90.22;97576.63;6232592;22;19919;-93
2023/07/19 03:51:30;;;;;;;;;;;;;;;15.37;90.70;97581.75;6234753;22;19981;-93
2023/07/19 03:54:17;;;;;;;;;;;;;;;15.31;90.70;97564.03;6262802;22;19923;-93
2023/07/19 03:57:05;;;;;;;;;;;;;;;15.19;91.84;97574.19;6261885;22;19919;-91
2023/07/19 03:59:37;;;;;;;;;;;;;;;15.18;93.87;97583.63;6236013;22;19923;-94
2023/07/19 04:02:40;;;;;;;;;;;;;;;15.19;92.34;97639.44;6296219;22;19937;-89
2023/07/19 04:05:29;;;;;;;;;;;;;;;15.16;91.96;97618.19;6312784;22;20242;-93
2023/07/19 04:08:22;;;;;;;;;;;;;;;15.10;93.16;97663.75;6296234;22;19925;-92
2023/07/19 04:11:16;;;;;;;;;;;;;;;15.12;93.95;97672.44;6229061;23;20341;-94
2023/07/19 04:14:02;;;;;;;;;;;;;;;15.18;92.86;97679.94;6207565;23;19925;-92
2023/07/19 04:16:48;;;;;;;;;;;;;;;15.22;92.13;97694.53;6173767;23;20298;-92
2023/07/19 04:19:14;;;;;;;;;;;;;;;15.20;92.35;97691.38;6197853;23;19965;-91
2023/07/19 04:21:43;;;;;;;;;;;;;;;15.20;92.52;97718.13;6223507;23;19919;-91
2023/07/19 04:24:32;;;;;;;;;;;;;;;15.19;93.27;97719.28;6172515;23;19954;-92
2023/07/19 04:27:00;;;;;;;;;;;;;;;15.20;92.92;97729.13;6218788;23;19924;-93
2023/07/19 04:29:30;;;;;;;;;;;;;;;15.19;92.56;97711.00;6196100;23;19920;-89
2023/07/19 04:31:58;;;;;;;;;;;;;;;15.17;91.58;97722.41;6176670;23;19962;-93
2023/07/19 04:34:24;;;;;;;;;;;;;;;15.17;91.19;97722.41;6203946;23;19920;-93
2023/07/19 04:36:56;;;;;;;;;;;;;;;15.20;91.38;97740.13;6252305;23;19934;-93
2023/07/19 04:39:24;;;;;;;;;;;;;;;15.24;90.87;97732.69;6223122;23;19920;-92
2023/07/19 04:41:50;;;;;;;;;;;;;;;15.24;90.17;97730.72;6198955;23;19927;-92
2023/07/19 04:44:19;;;;;;;;;;;;;;;15.19;90.29;97733.03;6247448;23;19919;-92
2023/07/19 04:46:46;;;;;;;;;;;;;;;15.14;89.86;97730.66;6196836;23;19941;-90
2023/07/19 04:49:34;;;;;;;;;;;;;;;15.15;89.88;97730.25;6225704;23;19954;-93
2023/07/19 04:52:00;;;;;;;;;;;;;;;15.16;89.65;97734.56;6196111;23;19925;-93
2023/07/19 04:54:48;;;;;;;;;;;;;;;15.19;89.89;97747.59;6220128;23;20715;-92
2023/07/19 05:01:12;;;;;;;;;;;;;;;15.22;89.10;97737.78;6155497;23;19920;-91
2023/07/19 05:04:11;;;;;;;;;;;;;;;15.30;88.24;97752.38;6177374;23;20009;-92
2023/07/19 05:10:16;;;;;;;;;;;;;;;15.36;88.52;97737.88;6217825;23;19924;-91
2023/07/19 05:12:54;;;;;;;;;;;;;;;15.37;89.11;97756.00;6199667;23;19926;-94
2023/07/19 05:15:20;;;;;;;;;;;;;;;15.42;88.36;97758.38;6199269;23;20261;-91
2023/07/19 05:20:44;;;;;;;;;;;;;;;15.44;90.15;97763.50;6292740;22;19927;-92
2023/07/19 05:23:36;;;;;;;;;;;;;;;15.39;88.09;97769.34;6293008;22;19930;-93
2023/07/19 05:26:10;;;;;;;;;;;;;;;15.32;88.89;97775.59;6259179;22;20002;-89
2023/07/19 05:28:39;;;;;;;;;;;;;;;15.23;88.01;97778.69;6231855;22;19919;-91
2023/07/19 05:31:08;;;;;;;;;;;;;;;15.22;87.75;97782.59;6232465;22;19919;-90
2023/07/19 05:33:37;;;;;;;;;;;;;;;15.32;88.35;97774.81;6257396;22;19975;-90
2023/07/19 05:36:05;;;;;;;;;;;;;;;15.30;87.60;97786.22;6230986;22;20268;-91
2023/07/19 05:38:32;;;;;;;;;;;;;;;15.38;87.53;97792.56;6232350;22;19972;-93
2023/07/19 05:41:01;;;;;;;;;;;;;;;15.38;87.59;97801.59;6231106;22;20345;-93
2023/07/19 05:43:27;;;;;;;;;;;;;;;15.43;88.38;97800.44;6232915;22;19945;-93
2023/07/19 05:46:07;;;;;;;;;;;;;;;15.39;87.72;97789.41;6256199;22;19942;-91
2023/07/19 05:48:40;;;;;;;;;;;;;;;15.35;86.88;97804.34;6258375;22;19918;-89
2023/07/19 05:51:19;;;;;;;;;;;;;;;15.32;86.08;97827.13;6231747;22;19940;-93
2023/07/19 05:54:03;;;;;;;;;;;;;;;15.33;86.19;97834.19;6255381;22;19925;-91
2023/07/19 05:56:36;;;;;;;;;;;;;;;15.33;87.67;97817.69;6257537;22;19965;-92
2023/07/19 05:59:30;;;;;;;;;;;;;;;15.30;87.09;97804.69;6255336;22;19919;-87
2023/07/19 06:02:29;;;;;;;;;;;;;;;15.27;86.86;97818.06;6286207;22;20026;-86
2023/07/19 06:05:02;;;;;;;;;;;;;;;15.18;85.91;97836.84;6278816;22;19997;-89
2023/07/19 06:07:32;;;;;;;;;;;;;;;15.12;85.13;97862.34;6304816;22;19919;-89
2023/07/19 06:09:58;;;;;;;;;;;;;;;15.12;86.38;97832.06;6304688;22;19925;-86
2023/07/19 06:12:24;;;;;;;;;;;;;;;15.09;86.47;97827.31;6251295;22;19938;-91
2023/07/19 06:14:49;;;;;;;;;;;;;;;15.11;85.41;97838.75;6279226;22;20384;-88
2023/07/19 06:17:44;;;;;;;;;;;;;;;15.23;87.04;97844.75;6276472;22;19919;-87
2023/07/19 06:20:13;;;;;;;;;;;;;;;15.18;86.34;97839.59;6252642;22;19930;-89
2023/07/19 06:23:15;;;;;;;;;;;;;;;14.91;86.62;97860.97;6193019;23;19931;-92
2023/07/19 06:25:41;;;;;;;;;;;;;;;14.88;87.19;97853.44;6139898;23;19919;-90
2023/07/19 06:28:07;;;;;;;;;;;;;;;14.83;86.96;97870.28;6192968;23;19919;-91
2023/07/19 06:31:07;;;;;;;;;;;;;;;14.79;87.13;97856.50;6192127;23;19942;-92
2023/07/19 06:34:00;;;;;;;;;;;;;;;14.70;87.79;97860.72;6128988;23;20019;-93
2023/07/19 06:36:26;;;;;;;;;;;;;;;14.63;87.37;97877.91;6153900;23;19920;-90
2023/07/19 06:38:56;;;;;;;;;;;;;;;14.53;88.80;97862.09;6155757;23;20003;-92
2023/07/19 06:42:02;;;;;;;;;;;;;;;14.55;88.52;97876.25;6180961;23;19921;-92
2023/07/19 06:44:32;;;;;;;;;;;;;;;14.54;87.64;97885.69;6156748;23;20322;-93
2023/07/19 06:47:00;;;;;;;;;;;;;;;14.57;88.22;97876.69;6156926;23;19920;-92
2023/07/19 06:49:28;;;;;;;;;;;;;;;14.53;88.66;97890.38;6155452;23;19997;-91
2023/07/19 06:55:15;;;;;;;;;;;;;;;14.49;89.37;97908.75;6157789;23;19931;-91
2023/07/19 06:58:07;;;;;;;;;;;;;;;14.50;89.35;97893.03;6156975;23;19924;-96
2023/07/19 07:00:39;;;;;;;;;;;;;;;14.56;89.72;97906.13;6195724;23;20396;-92
2023/07/19 07:03:04;;;;;;;;;;;;;;;14.57;89.45;97906.94;6194626;23;19955;-93
2023/07/19 07:05:30;;;;;;;;;;;;;;;14.57;90.18;97899.47;6190737;23;19924;-91
2023/07/19 07:07:56;;;;;;;;;;;;;;;14.63;89.82;97915.63;6189661;23;19998;-94
2023/07/19 07:10:22;;;;;;;;;;;;;;;14.62;89.13;97898.34;6211455;22;19920;-92
2023/07/19 07:12:48;;;;;;;;;;;;;;;14.63;89.06;97921.91;6233378;22;20061;-93
2023/07/19 07:15:14;;;;;;;;;;;;;;;14.68;88.17;97918.06;6235553;22;19930;-93
2023/07/19 07:17:48;;;;;;;;;;;;;;;14.76;87.88;97906.75;6232165;22;20284;-94
2023/07/19 07:20:14;;;;;;;;;;;;;;;14.87;87.85;97911.63;6235527;22;20303;-92
2023/07/19 07:22:41;;;;;;;;;;;;;;;14.87;89.00;97922.63;6230695;22;20009;-92
2023/07/19 07:25:06;;;;;;;;;;;;;;;14.89;87.19;97923.81;6230237;22;20060;-91
2023/07/19 07:27:32;;;;;;;;;;;;;;;14.91;87.14;97917.94;6200613;23;20223;-91
2023/07/19 07:30:00;;;;;;;;;;;;;;;14.91;87.52;97920.69;6177852;23;19915;-93
2023/07/19 07:32:30;;;;;;;;;;;;;;;14.96;87.65;97923.09;6252389;23;19924;-93
2023/07/19 07:35:03;;;;;;;;;;;;;;;15.00;86.43;97937.72;6225940;23;19999;-94
2023/07/19 07:37:29;;;;;;;;;;;;;;;15.02;87.27;97952.66;6225071;23;19920;-91
2023/07/19 07:40:26;;;;;;;;;;;;;;;15.06;86.77;97941.69;6198577;23;19927;-95
2023/07/19 07:42:53;;;;;;;;;;;;;;;15.06;87.57;97952.69;6199184;23;19994;-92
2023/07/19 07:45:19;;;;;;;;;;;;;;;15.13;87.48;97954.72;6199309;23;19919;-94
2023/07/19 07:47:54;;;;;;;;;;;;;;;15.18;87.66;97971.72;6202111;23;20084;-95
2023/07/19 07:50:24;;;;;;;;;;;;;;;15.17;86.99;97986.66;6225604;23;19923;-92
2023/07/19 07:52:53;;;;;;;;;;;;;;;15.25;86.98;97974.53;6223576;23;19926;-92
2023/07/19 07:55:25;;;;;;;;;;;;;;;15.31;86.65;97982.47;6198661;23;20404;-94
2023/07/19 07:57:53;;;;;;;;;;;;;;;15.33;86.90;97975.44;6184743;22;20265;-93
2023/07/19 08:00:25;;;;;;;;;;;;;;;15.38;86.87;98002.59;6232358;22;20311;-95
2023/07/19 08:02:52;;;;;;;;;;;;;;;15.38;85.56;98013.63;6232108;22;19919;-93
2023/07/19 08:05:21;;;;;;;;;;;;;;;15.44;86.80;98005.81;6231249;22;19926;-95
2023/07/19 08:08:18;;;;;;;;;;;;;;;15.45;87.29;98004.66;6256822;22;19919;-93
2023/07/19 08:10:44;;;;;;;;;;;;;;;15.53;85.85;97992.56;6231107;22;19939;-92
2023/07/19 08:13:11;;;;;;;;;;;;;;;15.58;86.54;98003.19;6230116;22;19923;-95
2023/07/19 08:15:39;;;;;;;;;;;;;;;15.64;85.57;97987.94;6229315;22;19919;-95
2023/07/19 08:18:08;;;;;;;;;;;;;;;15.65;85.04;97994.22;6229470;22;20058;-93
2023/07/19 08:20:34;;;;;;;;;;;;;;;15.73;84.56;98001.44;6227960;22;19927;-90
2023/07/19 08:23:00;;;;;;;;;;;;;;;15.80;84.57;98020.00;6200317;23;20411;-90
2023/07/19 08:25:25;;;;;;;;;;;;;;;15.91;83.73;98005.13;6247047;23;19919;-95
2023/07/19 08:27:51;;;;;;;;;;;;;;;15.98;84.35;98012.66;6197354;23;19919;-92
2023/07/19 08:30:18;;;;;;;;;;;;;;;16.05;83.10;98007.19;6246317;23;19927;-93
2023/07/19 08:32:45;;;;;;;;;;;;;;;16.15;82.31;98019.50;6195553;23;19994;-88
2023/07/19 08:35:12;;;;;;;;;;;;;;;16.25;82.01;98034.53;6195527;23;19941;-89
2023/07/19 08:37:39;;;;;;;;;;;;;;;16.29;83.58;98019.63;6247666;23;19919;-90
2023/07/19 08:40:08;;;;;;;;;;;;;;;16.35;80.83;98056.69;6250811;23;19920;-93
2023/07/19 08:42:34;;;;;;;;;;;;;;;16.48;80.26;98029.59;6199749;23;19920;-92
2023/07/19 08:45:00;;;;;;;;;;;;;;;16.60;79.95;98036.78;6198762;23;20454;-89
2023/07/19 08:47:28;;;;;;;;;;;;;;;16.78;80.14;98062.53;6225232;23;19923;-92
2023/07/19 08:49:54;;;;;;;;;;;;;;;16.85;78.59;98040.50;6225181;23;19919;-91
2023/07/19 08:52:19;;;;;;;;;;;;;;;16.95;80.54;98044.47;6197961;23;19920;-90
2023/07/19 08:54:45;;;;;;;;;;;;;;;17.00;78.48;98054.38;6222339;23;19947;-94
2023/07/19 08:57:11;;;;;;;;;;;;;;;17.02;78.33;98050.06;6200183;23;19916;-92
2023/07/19 08:59:37;;;;;;;;;;;;;;;17.01;75.33;98048.47;6200675;23;19920;-91
2023/07/19 09:02:03;;;;;;;;;;;;;;;17.06;77.43;98048.09;6222806;23;19946;-92
2023/07/19 09:04:29;;;;;;;;;;;;;;;17.10;75.61;98051.66;6197547;23;19926;-94
2023/07/19 09:07:07;;;;;;;;;;;;;;;17.12;75.83;98062.34;6228863;23;19947;-95
2023/07/19 09:09:33;;;;;;;;;;;;;;;17.13;76.11;98069.44;6223931;23;19920;-91
2023/07/19 09:12:10;;;;;;;;;;;;;;;17.16;75.75;98068.66;6223324;23;19923;-92
2023/07/19 09:14:37;;;;;;;;;;;;;;;17.31;73.79;98072.28;6201433;23;19919;-94
2023/07/19 09:17:11;;;;;;;;;;;;;;;17.38;74.29;98072.28;6225954;23;19924;-92
2023/07/19 09:19:41;;;;;;;;;;;;;;;17.47;74.58;98063.66;6225500;23;19961;-91
2023/07/19 09:22:07;;;;;;;;;;;;;;;17.52;73.01;98071.56;6228484;23;19911;-92
2023/07/19 09:24:55;;;;;;;;;;;;;;;17.58;72.84;98073.56;6234638;23;19919;-95
2023/07/19 09:27:25;;;;;;;;;;;;;;;17.75;72.59;98071.25;6255167;23;19939;-95
2023/07/19 09:29:51;;;;;;;;;;;;;;;17.91;72.53;98060.63;6205495;23;19919;-94
2023/07/19 09:32:17;;;;;;;;;;;;;;;18.07;71.97;98058.28;6207284;23;19938;-93
2023/07/19 09:34:44;;;;;;;;;;;;;;;18.08;70.31;98048.03;6231173;23;19919;-94
2023/07/19 09:37:19;;;;;;;;;;;;;;;18.00;68.82;98049.97;6206467;23;19924;-93
2023/07/19 09:39:55;;;;;;;;;;;;;;;18.09;68.74;98060.66;6229274;23;20235;-92
2023/07/19 09:42:21;;;;;;;;;;;;;;;18.24;68.04;98067.78;6199417;23;19920;-91
2023/07/19 09:44:48;;;;;;;;;;;;;;;18.34;65.83;98065.41;6204875;23;19921;-95
2023/07/19 09:47:17;;;;;;;;;;;;;;;18.41;66.39;98066.22;6258448;23;19919;-89
2023/07/19 09:49:57;;;;;;;;;;;;;;;;;;;;;
2023/07/19 09:52:38;;;;;;;;;;;;;;;18.75;65.16;98071.34;6259828;23;19935;-95
2023/07/19 09:55:11;;;;;;;;;;;;;;;18.82;64.59;98082.41;6254767;23;20265;-90
2023/07/19 09:57:40;;;;;;;;;;;;;;;18.96;64.83;98062.22;6205231;23;19920;-93
2023/07/19 10:00:09;;;;;;;;;;;;;;;19.12;63.71;98073.63;6227350;23;19926;-93
2023/07/19 10:02:45;;;;;;;;;;;;;;;19.34;63.45;98063.28;6227178;23;19920;-94
2023/07/19 10:05:15;;;;;;;;;;;;;;;19.53;61.58;98075.84;6201753;23;19966;-94
2023/07/19 10:45:03;;;;;;;;;;;;;;;19.18;60.57;98057.41;6175586;23;19924;-95
2023/07/19 10:54:55;;;;;;;;;;;;;;;19.01;60.48;98097.81;6131338;23;19921;-88
2023/07/19 10:57:23;;;;;;;;;;;;;;;19.25;59.68;98104.47;6106172;23;19932;-92
2023/07/19 10:59:51;;;;;;;;;;;;;;;19.44;59.17;98109.56;6064351;23;19924;-93
2023/07/19 11:02:29;;;;;;;;;;;;;;;;;;6133587;23;20378;-93
2023/07/19 11:04:58;;;;;;;;;;;;;;;;;;6141029;23;19920;-94
2023/07/19 11:07:31;;;;;;;;;;;;;;;19.59;58.75;98126.13;6147351;23;19926;-94
2023/07/19 11:09:56;;;;;;;;;;;;;;;19.44;58.94;98117.88;6167134;23;19920;-91
2023/07/19 11:12:53;;;;;;;;;;;;;;;19.35;59.25;98133.34;6115001;23;20015;-92
2023/07/19 11:15:18;;;;;;;;;;;;;;;19.29;57.77;98116.31;6114938;23;19931;-94
2023/07/19 11:18:03;;;;;;;;;;;;;;;19.31;60.52;98121.47;6192250;22;19918;-94
2023/07/19 11:20:54;;;;;;;;;;;;;;;19.34;58.29;98124.25;6237258;22;20317;-93
2023/07/19 11:23:52;;;;;;;;;;;;;;;19.43;58.36;98123.81;6260132;22;19919;-91
2023/07/19 11:26:49;;;;;;;;;;;;;;;19.45;57.82;98132.50;6235737;22;20353;-91
2023/07/19 11:29:20;;;;;;;;;;;;;;;19.49;57.73;98116.66;6234405;22;19943;-91
2023/07/19 11:31:46;;;;;;;;;;;;;;;19.52;59.10;98115.84;6233855;22;19994;-90
2023/07/19 11:34:52;;;;;;;;;;;;;;;19.69;56.66;98130.84;6233286;22;19919;-94
2023/07/19 11:37:33;;;;;;;;;;;;;;;19.78;56.44;98135.97;6235485;22;19926;-91
2023/07/19 11:40:09;;;;;;;;;;;;;;;19.74;57.64;98132.44;6226353;22;20230;-90
2023/07/19 11:45:31;;;;;;;;;;;;;;;19.56;57.12;98119.41;6194978;23;19919;-91
2023/07/19 11:48:01;;;;;;;;;;;;;;;19.46;56.51;98140.41;6195955;23;19919;-89
2023/07/19 11:56:23;;;;;;;;;;;;;;;19.11;58.70;98144.09;6222273;23;20243;-90
2023/07/19 11:58:50;;;;;;;;;;;;;;;19.06;56.23;98138.16;6173988;23;19974;-94
2023/07/19 12:16:20;;;;;;;;;;;;;;;19.44;57.82;98173.31;6175685;23;19950;-94
2023/07/19 12:26:23;;;;;;;;;;;;;;;19.67;55.49;98188.72;6320845;22;19907;-93
2023/07/19 12:29:33;;;;;;;;;;;;;;;19.59;55.39;98182.34;6126097;23;19920;-95
2023/07/19 12:44:43;;;;;;;;;;;;;;;19.70;55.26;98193.44;6226311;22;19926;-88
2023/07/19 12:47:11;;;;;;;;;;;;;;;;;;6253939;22;19919;-92
2023/07/19 12:50:02;;;;;;;;;;;;;;;19.61;54.39;98202.16;6224931;22;19919;-89
2023/07/19 12:52:39;;;;;;;;;;;;;;;19.59;54.54;98192.66;6253291;22;19926;-92
2023/07/19 12:55:06;;;;;;;;;;;;;;;19.64;56.08;98193.06;6228278;22;20004;-90
2023/07/19 12:57:36;;;;;;;;;;;;;;;19.54;54.36;98201.41;6227234;22;20278;-95
2023/07/19 13:00:05;;;;;;;;;;;;;;;19.62;54.85;98192.63;6226274;22;19923;-91
2023/07/19 13:02:32;;;;;;;;;;;;;;;19.61;55.77;98193.84;6226705;22;19969;-91
2023/07/19 13:04:58;;;;;;;;;;;;;;;19.57;54.93;98203.34;6250360;22;19919;-91
2023/07/19 13:07:26;;;;;;;;;;;;;;;19.57;55.42;98201.38;6202761;22;19923;-92
2023/07/19 13:10:02;;;;;;;;;;;;;;;19.55;54.93;98191.88;6227767;22;20483;-93
2023/07/19 13:12:28;;;;;;;;;;;;;;;19.63;54.70;98193.44;6254014;22;19923;-91
2023/07/19 13:14:55;;;;;;;;;;;;;;;19.63;55.10;98198.97;6223846;22;19923;-91
2023/07/19 13:17:21;;;;;;;;;;;;;;;19.71;55.64;98189.47;6255368;22;19926;-92
2023/07/19 13:19:47;;;;;;;;;;;;;;;19.67;54.62;98180.41;6254572;22;19919;-94
2023/07/19 13:22:18;;;;;;;;;;;;;;;19.74;55.37;98191.44;6257241;22;20257;-93
2023/07/19 13:24:44;;;;;;;;;;;;;;;19.75;55.39;98190.25;6257196;22;19915;-94
2023/07/19 13:30:40;;;;;;;;;;;;;;;20.13;54.82;98182.16;6261396;22;20008;-92
2023/07/19 13:33:33;;;;;;;;;;;;;;;20.17;53.34;98180.94;6270459;22;19912;-92
2023/07/19 13:36:34;;;;;;;;;;;;;;;20.17;52.83;98180.94;6260783;22;19927;-93
2023/07/19 13:39:28;;;;;;;;;;;;;;;20.46;51.87;98185.53;6240348;22;20099;-93
2023/07/19 13:42:15;;;;;;;;;;;;;;;20.62;51.64;98185.84;6211330;22;19988;-95
2023/07/19 13:44:44;;;;;;;;;;;;;;;20.58;51.58;98180.31;6258594;22;19915;-91
2023/07/19 13:47:10;;;;;;;;;;;;;;;20.46;52.95;98194.63;6280534;22;19941;-93
2023/07/19 13:49:39;;;;;;;;;;;;;;;20.37;51.94;98181.22;6227316;22;20098;-94
2023/07/19 13:52:14;;;;;;;;;;;;;;;20.43;51.79;98181.59;6202789;22;20404;-91
2023/07/19 13:55:07;;;;;;;;;;;;;;;20.72;51.28;98181.41;6250839;22;19986;-90
2023/07/19 13:57:33;;;;;;;;;;;;;;;20.81;50.93;98185.31;6223288;22;19927;-90
2023/07/19 13:59:59;;;;;;;;;;;;;;;20.89;51.09;98169.34;6273981;22;20266;-92
2023/07/19 14:02:28;;;;;;;;;;;;;;;21.10;49.88;98173.94;6228352;22;19930;-92
2023/07/19 14:04:56;;;;;;;;;;;;;;;21.24;50.88;98165.47;6202493;22;20010;-91
2023/07/19 14:07:47;;;;;;;;;;;;;;;21.29;49.37;98170.59;6215789;22;19919;-92
2023/07/19 14:10:13;;;;;;;;;;;;;;;21.37;49.64;98176.88;6250724;22;19923;-93
2023/07/19 14:12:39;;;;;;;;;;;;;;;21.38;49.58;98164.56;6252325;22;20090;-90
2023/07/19 14:15:07;;;;;;;;;;;;;;;21.51;50.04;98179.50;6248322;22;19973;-93
2023/07/19 14:17:58;;;;;;;;;;;;;;;21.55;47.84;98179.47;6252089;22;19981;-93
2023/07/19 14:20:26;;;;;;;;;;;;;;;21.55;47.86;98169.13;6280023;22;19919;-93
2023/07/19 14:22:52;;;;;;;;;;;;;;;21.56;47.32;98192.19;6249365;22;19920;-92
2023/07/19 14:28:42;;;;;;;;;;;;;;;21.58;47.16;98190.53;6278175;22;19923;-91
2023/07/19 14:31:35;;;;;;;;;;;;;;;21.63;47.74;98164.28;6255374;22;20037;-90
2023/07/19 14:34:08;;;;;;;;;;;;;;;21.41;47.36;98180.41;6252551;22;19919;-92
2023/07/19 14:36:34;;;;;;;;;;;;;;;21.08;48.59;98181.91;6251471;22;19946;-89
2023/07/19 14:39:03;;;;;;;;;;;;;;;21.40;48.37;98178.84;6230603;22;19988;-93
2023/07/19 14:41:38;;;;;;;;;;;;;;;21.75;46.79;98183.19;6226383;22;19925;-93
2023/07/19 14:44:05;;;;;;;;;;;;;;;21.87;45.50;98167.19;6225949;22;20415;-90
2023/07/19 14:46:33;;;;;;;;;;;;;;;21.90;45.56;98164.34;6282551;22;19923;-92
2023/07/19 14:49:01;;;;;;;;;;;;;;;21.97;46.05;98167.03;6274653;22;19989;-89
2023/07/19 14:51:44;;;;;;;;;;;;;;;22.10;46.16;98172.06;6225586;22;20708;-90
2023/07/19 14:54:11;;;;;;;;;;;;;;;22.11;44.83;98166.06;6250916;22;20744;-91
2023/07/19 14:56:54;;;;;;;;;;;;;;;22.03;45.81;98170.94;6226310;22;19923;-92
2023/07/19 14:59:21;;;;;;;;;;;;;;;21.81;45.03;98175.97;6227005;22;20387;-94
2023/07/19 15:02:02;;;;;;;;;;;;;;;21.38;46.93;98181.22;6251552;22;19967;-91
2023/07/19 15:04:28;;;;;;;;;;;;;;;21.26;47.27;98170.63;6229889;22;19927;-93
2023/07/19 15:07:17;;;;;;;;;;;;;;;21.47;46.81;98167.63;6223959;23;19919;-91
2023/07/19 15:13:11;;;;;;;;;;;;;;;22.13;46.27;98171.22;6124433;23;19921;-90
2023/07/19 15:15:37;;;;;;;;;;;;;;;22.17;44.74;98164.41;6072989;23;19920;-89
2023/07/19 15:18:03;;;;;;;;;;;;;;;22.32;45.10;98159.44;6115198;22;19994;-89
2023/07/19 15:20:30;;;;;;;;;;;;;;;22.39;43.07;98166.91;6251158;22;19919;-91
2023/07/19 15:22:56;;;;;;;;;;;;;;;22.24;43.21;98169.09;6251064;22;19947;-90
2023/07/19 15:25:29;;;;;;;;;;;;;;;22.25;43.14;98162.31;6274800;22;19958;-91
2023/07/19 15:27:57;;;;;;;;;;;;;;;22.22;43.62;98169.53;6250671;22;20017;-91
2023/07/19 15:30:23;;;;;;;;;;;;;;;22.15;42.29;98168.78;6276672;22;19931;-90
2023/07/19 15:32:51;;;;;;;;;;;;;;;22.08;43.91;98158.53;6226340;22;19995;-92
2023/07/19 15:35:25;;;;;;;;;;;;;;;22.07;42.60;98170.88;6277628;22;19923;-89
2023/07/19 15:37:51;;;;;;;;;;;;;;;22.00;43.21;98160.63;6253082;22;20272;-88
2023/07/19 15:40:17;;;;;;;;;;;;;;;21.98;43.99;98170.59;6259214;22;19927;-91
2023/07/19 15:42:46;;;;;;;;;;;;;;;22.00;42.52;98163.41;6252584;22;20698;-91
2023/07/19 15:45:13;;;;;;;;;;;;;;;21.99;41.82;98170.19;6253228;22;19966;-89
2023/07/19 15:47:39;;;;;;;;;;;;;;;21.96;42.85;98167.47;6250727;22;19923;-92
2023/07/19 15:50:12;;;;;;;;;;;;;;;21.99;43.56;98169.41;6226078;22;19925;-91
2023/07/19 15:52:41;;;;;;;;;;;;;;;21.97;43.31;98157.91;6249347;22;20006;-91
2023/07/19 15:55:08;;;;;;;;;;;;;;;21.74;42.81;98153.81;6249267;22;19926;-91
2023/07/19 15:57:59;;;;;;;;;;;;;;;21.71;43.35;98165.75;6254369;22;19926;-91
2023/07/19 16:00:25;;;;;;;;;;;;;;;21.55;44.07;98158.00;6278184;22;19994;-88
2023/07/19 16:02:52;;;;;;;;;;;;;;;21.39;44.22;98166.16;6276567;22;20474;-90
2023/07/19 16:05:24;;;;;;;;;;;;;;;21.23;45.33;98165.88;6279452;22;19930;-87
2023/07/19 16:07:50;;;;;;;;;;;;;;;21.07;46.07;98164.44;6279197;22;19926;-86
2023/07/19 16:10:18;;;;;;;;;;;;;;;20.92;46.22;98168.53;6272201;22;19946;-88
2023/07/19 16:12:45;;;;;;;;;;;;;;;20.77;46.39;98154.00;6249951;22;19919;-86
2023/07/19 16:15:11;;;;;;;;;;;;;;;20.63;47.14;98154.13;6270261;22;20307;-86
2023/07/19 16:17:46;;;;;;;;;;;;;;;20.55;47.61;98155.34;6226440;22;19923;-88
2023/07/19 16:20:11;;;;;;;;;;;;;;;20.41;48.62;98151.47;6274551;22;20261;-89
2023/07/19 16:22:37;;;;;;;;;;;;;;;20.34;49.43;98145.19;6248712;22;19926;-89
2023/07/19 16:25:05;;;;;;;;;;;;;;;20.29;48.56;98149.16;6275603;22;19973;-88
2023/07/19 16:27:33;;;;;;;;;;;;;;;20.21;49.27;98147.63;6223931;22;19951;-88